Time;durP1;ratioP1;P1;durP2;ratioP2;P2;SDS_P1;SDS_P2;PMS_P1;PMS_P2;Temp;Humidity;BMP_temperature;BMP_pressure;BME280_temperature;BME280_humidity;BME280_pressure;Samples;Min_cycle;Max_cycle;Signal;HPM_P1;HPM_P2
2023/12/02 00:00:02;;;;;;;13.10;11.00;;;;;21.70;99783.00;;;;2068053;28;20218;-56
2023/12/02 00:01:02;;;;;;;10.70;9.60;;;;;21.60;99750.00;;;;2070195;28;20272;-55
2023/12/02 00:02:03;;;;;;;13.13;10.97;;;;;21.60;99809.00;;;;2074425;28;20220;-55
2023/12/02 00:03:03;;;;;;;10.30;9.10;;;;;21.60;99780.00;;;;2069702;28;20207;-55
2023/12/02 00:04:03;;;;;;;13.37;10.70;;;;;21.60;99786.00;;;;2059668;28;20248;-55
2023/12/02 00:05:04;;;;;;;11.83;9.80;;;;;21.60;99787.00;;;;2069231;28;20373;-55
2023/12/02 00:06:04;;;;;;;12.63;10.33;;;;;21.60;99786.00;;;;2069455;28;20218;-55
2023/12/02 00:07:05;;;;;;;10.87;9.60;;;;;20.90;99781.00;;;;2069279;28;20310;-54
2023/12/02 00:08:05;;;;;;;10.77;9.70;;;;;21.60;99778.00;;;;2069299;28;20305;-54
2023/12/02 00:09:05;;;;;;;10.93;9.37;;;;;21.60;99788.00;;;;2060323;28;20233;-55
2023/12/02 00:10:07;;;;;;;11.20;9.73;;;;;21.60;99780.00;;;;2069941;28;20218;-55
2023/12/02 00:11:07;;;;;;;10.80;9.80;;;;;21.60;99776.00;;;;2069518;28;20214;-54
2023/12/02 00:12:07;;;;;;;11.00;9.50;;;;;21.60;99774.00;;;;2069837;28;20711;-55
2023/12/02 00:13:08;;;;;;;9.83;8.70;;;;;21.60;99776.00;;;;2069617;28;20667;-54
2023/12/02 00:14:08;;;;;;;10.57;9.47;;;;;21.60;99778.00;;;;2059742;28;20214;-55
2023/12/02 00:15:09;;;;;;;11.37;9.90;;;;;21.60;99775.00;;;;2069035;28;20715;-55
2023/12/02 00:16:09;;;;;;;11.27;9.67;;;;;21.50;99771.00;;;;2069649;28;20206;-55
2023/12/02 00:17:10;;;;;;;9.83;8.80;;;;;21.50;99771.00;;;;2069135;28;20202;-55
2023/12/02 00:18:10;;;;;;;9.23;8.13;;;;;21.50;99772.00;;;;2069366;28;20203;-55
2023/12/02 00:19:10;;;;;;;11.30;9.60;;;;;21.50;99777.00;;;;2060820;28;20207;-55
2023/12/02 00:20:11;;;;;;;8.93;8.03;;;;;21.50;99780.00;;;;2070673;28;20207;-55
2023/12/02 00:21:11;;;;;;;10.67;9.07;;;;;21.50;99779.00;;;;2071283;28;20217;-55
2023/12/02 00:22:13;;;;;;;9.43;8.43;;;;;21.50;99783.00;;;;2070997;28;20298;-55
2023/12/02 00:23:13;;;;;;;10.43;8.48;;;;;21.50;99796.00;;;;2067365;28;20510;-55
2023/12/02 00:24:14;;;;;;;10.20;9.10;;;;;21.50;99791.00;;;;2060472;28;20253;-55
2023/12/02 00:25:14;;;;;;;10.20;8.43;;;;;21.50;99789.00;;;;2070921;28;20219;-55
2023/12/02 00:26:14;;;;;;;8.93;7.50;;;;;21.50;99779.00;;;;2071203;28;20249;-55
2023/12/02 00:27:16;;;;;;;9.30;8.33;;;;;21.50;99775.00;;;;2070335;28;20241;-54
2023/12/02 00:28:17;;;;;;;10.45;9.02;;;;;21.40;99782.00;;;;2071266;28;20583;-54
2023/12/02 00:29:17;;;;;;;9.00;7.97;;;;;21.40;99787.00;;;;2060872;28;20210;-55
2023/12/02 00:30:18;;;;;;;9.23;7.83;;;;;21.40;99779.00;;;;2071166;28;20268;-55
2023/12/02 00:31:18;;;;;;;9.30;8.03;;;;;21.40;99782.00;;;;2071204;28;20225;-55
2023/12/02 00:32:18;;;;;;;9.70;7.80;;;;;21.40;99785.00;;;;2075522;28;20214;-55
2023/12/02 00:33:19;;;;;;;8.17;7.23;;;;;21.40;99785.00;;;;2071239;28;20272;-55
2023/12/02 00:34:19;;;;;;;8.87;7.80;;;;;21.40;99784.00;;;;2061212;28;22455;-55
2023/12/02 00:35:19;;;;;;;9.63;8.30;;;;;21.40;99782.00;;;;2071244;28;20210;-54
2023/12/02 00:36:20;;;;;;;9.73;8.33;;;;;21.40;99777.00;;;;2071205;28;20292;-55
2023/12/02 00:37:20;;;;;;;9.83;8.53;;;;;21.40;99780.00;;;;2070814;28;20225;-55
2023/12/02 00:38:20;;;;;;;8.47;7.67;;;;;21.40;99776.00;;;;2071231;28;20219;-55
2023/12/02 00:39:20;;;;;;;9.03;8.10;;;;;21.40;99775.00;;;;2061446;28;20226;-55
2023/12/02 00:40:21;;;;;;;8.23;7.33;;;;;21.40;99779.00;;;;2071257;28;20210;-55
2023/12/02 00:41:21;;;;;;;8.63;7.23;;;;;21.40;99778.00;;;;2070784;28;20259;-55
2023/12/02 00:42:21;;;;;;;8.10;7.30;;;;;21.40;99788.00;;;;2071364;28;20691;-55
2023/12/02 00:43:22;;;;;;;9.20;7.80;;;;;21.40;99788.00;;;;2071095;28;20693;-55
2023/12/02 00:44:22;;;;;;;8.63;7.70;;;;;21.40;99789.00;;;;2060634;28;20864;-55
2023/12/02 00:45:22;;;;;;;8.47;7.57;;;;;21.40;99790.00;;;;2071093;28;20292;-55
2023/12/02 00:46:23;;;;;;;8.43;7.50;;;;;21.40;99780.00;;;;2072600;28;20214;-55
2023/12/02 00:47:23;;;;;;;7.27;6.53;;;;;21.40;99785.00;;;;2072938;28;20683;-55
2023/12/02 00:48:24;;;;;;;7.53;6.77;;;;;21.40;99782.00;;;;2071161;28;20222;-54
2023/12/02 00:49:24;;;;;;;7.90;7.10;;;;;21.40;99785.00;;;;2061432;28;20226;-55
2023/12/02 00:50:24;;;;;;;7.20;6.47;;;;;20.60;99791.00;;;;2071187;28;20244;-55
2023/12/02 00:51:25;;;;;;;8.40;7.07;;;;;21.40;99787.00;;;;2070871;28;20218;-55
2023/12/02 00:52:25;;;;;;;7.70;6.90;;;;;21.30;99788.00;;;;2071284;28;20210;-55
2023/12/02 00:53:25;;;;;;;8.50;6.97;;;;;21.30;99788.00;;;;2070818;28;20299;-55
2023/12/02 00:54:26;;;;;;;7.43;6.67;;;;;21.30;99786.00;;;;2061100;28;20230;-54
2023/12/02 00:55:26;;;;;;;7.53;6.70;;;;;21.30;99791.00;;;;2070620;28;20671;-59
2023/12/02 00:56:27;;;;;;;6.87;6.00;;;;;21.30;99789.00;;;;2076379;28;20491;-56
2023/12/02 00:57:27;;;;;;;8.07;7.23;;;;;21.30;99788.00;;;;2072439;28;20210;-56
2023/12/02 00:58:27;;;;;;;8.60;6.97;;;;;21.30;99791.00;;;;2070974;28;20226;-55
2023/12/02 00:59:28;;;;;;;7.60;6.80;;;;;21.30;99790.00;;;;2061093;28;20245;-55
2023/12/02 01:00:28;;;;;;;7.40;6.53;;;;;21.30;99789.00;;;;2070672;28;20213;-54
2023/12/02 01:01:29;;;;;;;8.10;7.30;;;;;21.30;99788.00;;;;2071134;28;20596;-55
2023/12/02 01:02:30;;;;;;;7.37;6.00;;;;;21.30;99790.00;;;;2070845;28;20565;-55
2023/12/02 01:03:30;;;;;;;7.37;6.63;;;;;21.30;99829.00;;;;2070895;28;20230;-55
2023/12/02 01:04:30;;;;;;;6.97;6.27;;;;;21.30;99805.00;;;;2061249;28;20714;-54
2023/12/02 01:05:30;;;;;;;7.53;6.70;;;;;21.30;99787.00;;;;2070425;28;20257;-55
2023/12/02 01:06:31;;;;;;;7.10;6.33;;;;;21.30;99787.00;;;;2070781;28;20230;-55
2023/12/02 01:07:31;;;;;;;7.63;6.80;;;;;21.30;99788.00;;;;2070202;28;20206;-55
2023/12/02 01:08:31;;;;;;;6.57;5.97;;;;;21.30;99793.00;;;;2070268;28;20475;-55
2023/12/02 01:09:32;;;;;;;6.77;6.07;;;;;21.30;99783.00;;;;2060521;28;20226;-54
2023/12/02 01:10:32;;;;;;;6.73;5.87;;;;;21.30;99791.00;;;;2069722;28;20217;-55
2023/12/02 01:11:32;;;;;;;6.50;5.90;;;;;21.30;99846.00;;;;2071061;28;20703;-55
2023/12/02 01:12:33;;;;;;;7.10;6.33;;;;;21.20;99790.00;;;;2070646;28;21018;-55
2023/12/02 01:13:33;;;;;;;6.30;5.70;;;;;21.20;99801.00;;;;2071052;28;20599;-54
2023/12/02 01:14:33;;;;;;;6.87;6.17;;;;;21.20;99808.00;;;;2060541;28;20679;-54
2023/12/02 01:15:34;;;;;;;7.27;6.47;;;;;21.20;99830.00;;;;2071070;28;20706;-54
2023/12/02 01:16:34;;;;;;;6.90;6.20;;;;;21.20;99796.00;;;;2070926;28;20952;-55
2023/12/02 01:17:34;;;;;;;7.00;6.30;;;;;21.20;99801.00;;;;2070296;28;20691;-55
2023/12/02 01:18:35;;;;;;;6.20;5.60;;;;;21.20;99802.00;;;;2070884;28;20309;-54
2023/12/02 01:19:35;;;;;;;6.20;5.60;;;;;21.20;99800.00;;;;2060911;28;20222;-54
2023/12/02 01:20:35;;;;;;;6.83;6.13;;;;;21.20;99800.00;;;;2071091;28;20241;-54
2023/12/02 01:21:36;;;;;;;6.10;5.50;;;;;20.70;99803.00;;;;2071178;28;20214;-54
2023/12/02 01:22:36;;;;;;;6.33;5.47;;;;;21.10;99805.00;;;;2070546;28;20210;-54
2023/12/02 01:23:36;;;;;;;6.20;5.60;;;;;21.20;99811.00;;;;2071108;28;21035;-54
2023/12/02 01:24:37;;;;;;;6.23;5.63;;;;;21.20;99811.00;;;;2057974;28;20652;-54
2023/12/02 01:25:37;;;;;;;6.40;5.80;;;;;21.10;99596.00;;;;2071083;28;20678;-55
2023/12/02 01:26:37;;;;;;;6.50;5.90;;;;;21.10;99809.00;;;;2070052;28;20683;-55
2023/12/02 01:27:38;;;;;;;6.30;5.57;;;;;21.20;99809.00;;;;2070347;28;20209;-55
2023/12/02 01:28:38;;;;;;;7.30;6.13;;;;;21.20;99809.00;;;;2070958;28;20218;-55
2023/12/02 01:29:38;;;;;;;6.20;5.60;;;;;21.20;99820.00;;;;2069062;28;20232;-55
2023/12/02 01:30:39;;;;;;;6.67;5.77;;;;;21.20;99809.00;;;;2085488;28;20209;-54
2023/12/02 01:31:39;;;;;;;6.30;5.70;;;;;21.10;99809.00;;;;2076042;28;20207;-55
2023/12/02 01:32:40;;;;;;;6.07;5.50;;;;;21.10;99805.00;;;;2069627;28;20206;-55
2023/12/02 01:33:40;;;;;;;5.97;5.33;;;;;21.10;99817.00;;;;2069965;28;20637;-54
2023/12/02 01:34:40;;;;;;;5.90;5.30;;;;;21.10;99810.00;;;;2060372;28;20737;-55
2023/12/02 01:35:41;;;;;;;6.30;5.37;;;;;21.10;99818.00;;;;2070898;28;20620;-54
2023/12/02 01:36:41;;;;;;;5.60;5.10;;;;;21.10;99809.00;;;;2069411;28;20701;-55
2023/12/02 01:37:41;;;;;;;6.60;5.90;;;;;21.10;99807.00;;;;2069972;28;20669;-55
2023/12/02 01:38:42;;;;;;;6.60;5.90;;;;;21.10;99600.00;;;;2069935;28;20562;-54
2023/12/02 01:39:42;;;;;;;5.67;5.10;;;;;21.10;99798.00;;;;2060364;28;20733;-54
2023/12/02 01:40:43;;;;;;;5.60;5.10;;;;;21.10;99733.00;;;;2070565;28;20686;-54
2023/12/02 01:41:43;;;;;;;6.17;5.40;;;;;21.10;99804.00;;;;2070827;28;20218;-54
2023/12/02 01:42:43;;;;;;;5.57;5.00;;;;;21.10;99811.00;;;;2070076;28;20230;-54
2023/12/02 01:43:44;;;;;;;5.90;5.27;;;;;21.10;99807.00;;;;2070468;28;20256;-55
2023/12/02 01:44:44;;;;;;;6.57;5.50;;;;;21.10;99673.00;;;;2060831;28;20218;-55
2023/12/02 01:45:45;;;;;;;6.20;5.60;;;;;21.10;99811.00;;;;2073043;28;20210;-54
2023/12/02 01:46:45;;;;;;;5.00;4.50;;;;;21.10;99778.00;;;;2070869;28;20210;-54
2023/12/02 01:47:45;;;;;;;6.27;5.37;;;;;21.10;99803.00;;;;2070007;28;20211;-54
2023/12/02 01:48:46;;;;;;;5.83;5.23;;;;;21.10;99803.00;;;;2062220;28;20249;-54
2023/12/02 01:49:46;;;;;;;4.97;4.57;;;;;21.00;99818.00;;;;2060229;28;20288;-54
2023/12/02 01:50:46;;;;;;;5.13;4.63;;;;;21.00;99741.00;;;;2061651;28;20226;-55
2023/12/02 01:51:47;;;;;;;5.70;4.93;;;;;21.00;99648.00;;;;2069787;28;20213;-54
2023/12/02 01:52:47;;;;;;;4.90;4.40;;;;;21.00;99822.00;;;;2070351;28;20256;-55
2023/12/02 01:53:48;;;;;;;5.00;4.50;;;;;21.00;99825.00;;;;2070742;28;20261;-55
2023/12/02 01:54:48;;;;;;;6.50;5.17;;;;;21.00;99813.00;;;;2060611;28;20564;-55
2023/12/02 01:55:48;;;;;;;5.33;4.83;;;;;21.00;99806.00;;;;2070123;28;20229;-55
2023/12/02 01:56:49;;;;;;;6.00;5.40;;;;;21.00;99820.00;;;;2070660;28;20264;-55
2023/12/02 01:57:49;;;;;;;5.53;4.90;;;;;21.00;99826.00;;;;2069632;28;20726;-54
2023/12/02 01:58:49;;;;;;;5.67;4.53;;;;;21.00;99785.00;;;;2070489;28;20240;-55
2023/12/02 01:59:53;;;;;;;5.43;4.93;;;;;21.00;99825.00;;;;2059807;28;20214;-55
2023/12/02 02:00:54;;;;;;;5.40;4.90;;;;;21.00;99827.00;;;;2069962;28;20218;-54
2023/12/02 02:01:54;;;;;;;6.10;5.50;;;;;21.00;99830.00;;;;2070635;28;20595;-54
2023/12/02 02:02:54;;;;;;;5.70;4.90;;;;;21.00;99826.00;;;;2070123;28;20221;-54
2023/12/02 02:03:56;;;;;;;5.20;4.70;;;;;21.00;99831.00;;;;2070681;28;20817;-55
2023/12/02 02:04:56;;;;;;;5.32;4.82;;;;;21.00;99826.00;;;;2059540;28;20308;-54
2023/12/02 02:05:56;;;;;;;5.87;5.10;;;;;20.90;99833.00;;;;2069393;28;20218;-55
2023/12/02 02:06:57;;;;;;;5.30;4.80;;;;;21.00;99848.00;;;;2071317;28;20276;-54
2023/12/02 02:07:57;;;;;;;5.60;5.00;;;;;21.00;99837.00;;;;2076967;28;20918;-55
2023/12/02 02:08:57;;;;;;;5.57;5.07;;;;;21.00;99835.00;;;;2070577;28;20683;-54
2023/12/02 02:09:58;;;;;;;5.23;4.73;;;;;21.00;99835.00;;;;2060411;28;20211;-55
2023/12/02 02:10:58;;;;;;;5.90;5.30;;;;;21.00;99836.00;;;;2070322;28;20218;-54
2023/12/02 02:11:58;;;;;;;5.13;4.20;;;;;21.00;99839.00;;;;2070031;28;20199;-57
2023/12/02 02:12:59;;;;;;;5.30;4.80;;;;;21.00;99758.00;;;;2070596;28;20576;-56
2023/12/02 02:13:59;;;;;;;5.47;4.77;;;;;20.90;99841.00;;;;2070191;28;20598;-55
2023/12/02 02:14:59;;;;;;;5.53;5.00;;;;;20.90;99827.00;;;;2060620;28;20214;-55
2023/12/02 02:16:01;;;;;;;5.33;4.70;;;;;20.90;99844.00;;;;2070565;28;20353;-55
2023/12/02 02:17:01;;;;;;;5.13;4.63;;;;;20.90;99834.00;;;;2069981;28;20214;-55
2023/12/02 02:18:02;;;;;;;5.17;4.67;;;;;20.90;99839.00;;;;2070058;28;20853;-55
2023/12/02 02:19:02;;;;;;;5.87;4.80;;;;;20.90;99838.00;;;;2060507;28;20206;-55
2023/12/02 02:20:04;;;;;;;5.27;4.77;;;;;20.90;99829.00;;;;2069802;28;20954;-55
2023/12/02 02:21:07;;;;;;;4.80;4.30;;;;;20.90;99856.00;;;;2070320;28;20225;-55
2023/12/02 02:22:08;;;;;;;5.30;4.80;;;;;20.90;99841.00;;;;2070414;28;20699;-54
2023/12/02 02:23:08;;;;;;;5.40;4.90;;;;;20.90;99840.00;;;;2069792;28;20223;-54
2023/12/02 02:24:09;;;;;;;5.37;4.87;;;;;20.90;99842.00;;;;2060430;28;20899;-55
2023/12/02 02:25:09;;;;;;;5.23;4.73;;;;;20.90;99840.00;;;;2070163;28;20214;-54
2023/12/02 02:26:10;;;;;;;5.57;4.87;;;;;20.90;99833.00;;;;2069962;28;20549;-55
2023/12/02 02:27:10;;;;;;;4.60;4.20;;;;;20.90;99837.00;;;;2070062;28;20206;-55
2023/12/02 02:28:10;;;;;;;5.37;4.73;;;;;20.90;99845.00;;;;2069592;28;20206;-54
2023/12/02 02:29:11;;;;;;;5.97;5.40;;;;;20.90;99844.00;;;;2060756;28;20199;-54
2023/12/02 02:30:13;;;;;;;5.45;4.93;;;;;20.90;99838.00;;;;2070314;28;20210;-55
2023/12/02 02:31:14;;;;;;;5.05;4.55;;;;;20.90;99838.00;;;;2070131;28;21111;-54
2023/12/02 02:32:14;;;;;;;5.30;4.80;;;;;20.90;99835.00;;;;2070369;28;20210;-54
2023/12/02 02:33:15;;;;;;;5.13;4.63;;;;;20.90;99838.00;;;;2070075;28;20229;-54
2023/12/02 02:34:15;;;;;;;5.50;4.73;;;;;20.80;99843.00;;;;2060591;28;20255;-55
2023/12/02 02:35:16;;;;;;;7.87;5.30;;;;;20.80;99832.00;;;;2065101;28;20233;-55
2023/12/02 02:36:16;;;;;;;5.40;4.90;;;;;20.80;99842.00;;;;2069978;28;20206;-54
2023/12/02 02:37:16;;;;;;;4.93;4.20;;;;;20.80;99844.00;;;;2069806;28;20206;-55
2023/12/02 02:38:16;;;;;;;5.00;4.50;;;;;20.80;99840.00;;;;2069663;28;20241;-55
2023/12/02 02:39:17;;;;;;;5.53;5.00;;;;;20.80;99843.00;;;;2060015;28;20239;-54
2023/12/02 02:40:17;;;;;;;5.70;5.20;;;;;20.80;99845.00;;;;2068953;28;20217;-54
2023/12/02 02:41:17;;;;;;;6.00;5.40;;;;;20.80;99838.00;;;;2074719;28;20254;-54
2023/12/02 02:42:18;;;;;;;4.50;4.10;;;;;20.80;99833.00;;;;2069939;28;20202;-54
2023/12/02 02:43:18;;;;;;;6.17;5.10;;;;;20.80;99845.00;;;;2069751;28;20205;-55
2023/12/02 02:44:18;;;;;;;4.90;4.40;;;;;20.80;99846.00;;;;2060622;28;20221;-54
2023/12/02 02:45:19;;;;;;;5.53;5.00;;;;;20.80;99842.00;;;;2071338;28;20237;-54
2023/12/02 02:46:19;;;;;;;5.50;5.00;;;;;20.80;99844.00;;;;2074647;28;20198;-55
2023/12/02 02:47:19;;;;;;;5.60;5.10;;;;;20.80;99845.00;;;;2069928;28;20217;-55
2023/12/02 02:48:20;;;;;;;5.10;4.60;;;;;20.80;99844.00;;;;2063424;28;20238;-54
2023/12/02 02:49:20;;;;;;;5.77;4.73;;;;;20.80;99843.00;;;;2055333;28;20225;-54
2023/12/02 02:50:20;;;;;;;5.40;4.90;;;;;20.80;99839.00;;;;2069708;28;20221;-54
2023/12/02 02:51:21;;;;;;;5.07;4.57;;;;;20.80;99843.00;;;;2070359;28;20222;-54
2023/12/02 02:52:21;;;;;;;5.57;5.07;;;;;20.80;99839.00;;;;2069552;28;20218;-54
2023/12/02 02:53:22;;;;;;;6.35;5.75;;;;;20.80;99845.00;;;;2067766;28;20800;-55
2023/12/02 02:54:23;;;;;;;5.93;5.33;;;;;20.80;99839.00;;;;2060679;28;20295;-54
2023/12/02 02:55:23;;;;;;;6.60;5.67;;;;;20.80;99842.00;;;;2069877;28;20232;-55
2023/12/02 02:56:23;;;;;;;5.57;5.00;;;;;20.80;99858.00;;;;2070293;28;20829;-55
2023/12/02 02:57:24;;;;;;;5.90;5.30;;;;;20.80;99847.00;;;;2068680;28;20784;-54
2023/12/02 02:58:28;;;;;;;5.97;5.37;;;;;20.80;99843.00;;;;2068809;28;20217;-54
2023/12/02 02:59:28;;;;;;;7.68;6.25;;;;;20.80;99889.00;;;;2058858;28;20226;-55
2023/12/02 03:00:28;;;;;;;5.50;4.87;;;;;20.80;99852.00;;;;2069796;28;20237;-55
2023/12/02 03:01:29;;;;;;;6.20;4.70;;;;;20.70;99845.00;;;;2067362;28;20231;-54
2023/12/02 03:02:29;;;;;;;5.60;4.67;;;;;20.70;99840.00;;;;2069768;28;20217;-54
2023/12/02 03:03:29;;;;;;;4.97;4.47;;;;;20.80;99846.00;;;;2070175;28;20245;-54
2023/12/02 03:04:30;;;;;;;5.60;5.00;;;;;20.80;99847.00;;;;2063600;28;20209;-54
2023/12/02 03:05:30;;;;;;;5.73;5.20;;;;;20.70;99845.00;;;;2072799;28;20843;-55
2023/12/02 03:06:30;;;;;;;4.80;4.30;;;;;20.70;99845.00;;;;2070345;28;20283;-55
2023/12/02 03:07:31;;;;;;;5.00;4.20;;;;;20.80;99852.00;;;;2072842;28;20213;-55
2023/12/02 03:08:32;;;;;;;6.15;5.32;;;;;20.70;99844.00;;;;2069733;28;20210;-57
2023/12/02 03:09:32;;;;;;;5.20;4.70;;;;;20.70;99850.00;;;;2059886;28;20217;-56
2023/12/02 03:10:33;;;;;;;4.90;4.33;;;;;20.70;99845.00;;;;2070186;28;20242;-55
2023/12/02 03:11:34;;;;;;;6.35;4.30;;;;;20.80;99679.00;;;;2069075;28;20693;-54
2023/12/02 03:12:34;;;;;;;5.40;4.90;;;;;20.70;99847.00;;;;2070031;28;20213;-54
2023/12/02 03:13:34;;;;;;;5.10;4.60;;;;;20.70;99851.00;;;;2069992;28;20276;-54
2023/12/02 03:14:36;;;;;;;4.90;4.40;;;;;20.70;99845.00;;;;2059905;28;20222;-54
2023/12/02 03:15:36;;;;;;;5.68;5.18;;;;;20.70;99853.00;;;;2069226;28;20677;-54
2023/12/02 03:16:37;;;;;;;4.87;4.37;;;;;20.70;99850.00;;;;2068959;28;20206;-56
2023/12/02 03:17:37;;;;;;;4.67;4.20;;;;;20.70;99851.00;;;;2069345;28;20225;-55
2023/12/02 03:18:38;;;;;;;4.97;4.47;;;;;20.70;99849.00;;;;2069588;28;20608;-54
2023/12/02 03:19:38;;;;;;;5.60;4.30;;;;;20.70;99853.00;;;;2060363;28;20690;-54
2023/12/02 03:20:39;;;;;;;4.83;4.33;;;;;20.70;99853.00;;;;2070350;28;20225;-54
2023/12/02 03:21:39;;;;;;;4.63;4.17;;;;;20.70;99842.00;;;;2069967;28;20216;-54
2023/12/02 03:22:39;;;;;;;4.43;4.03;;;;;20.70;99846.00;;;;2070148;28;20206;-55
2023/12/02 03:23:40;;;;;;;5.70;4.87;;;;;20.70;99849.00;;;;2067656;28;20614;-55
2023/12/02 03:24:40;;;;;;;5.53;4.93;;;;;20.60;99852.00;;;;2060245;28;20222;-54
2023/12/02 03:25:41;;;;;;;4.23;3.83;;;;;20.60;99848.00;;;;2069684;28;20217;-55
2023/12/02 03:26:41;;;;;;;4.83;4.33;;;;;20.60;99843.00;;;;2071663;28;20214;-54
2023/12/02 03:27:41;;;;;;;5.60;5.00;;;;;20.60;99850.00;;;;2069704;28;20964;-54
2023/12/02 03:28:42;;;;;;;4.30;3.90;;;;;20.60;99848.00;;;;2069790;28;20268;-54
2023/12/02 03:29:42;;;;;;;4.80;4.30;;;;;20.60;99846.00;;;;2060389;28;20241;-55
2023/12/02 03:30:42;;;;;;;5.07;4.53;;;;;20.60;99847.00;;;;2070024;28;20248;-55
2023/12/02 03:31:43;;;;;;;4.63;4.13;;;;;20.70;99850.00;;;;2070020;28;20250;-54
2023/12/02 03:32:44;;;;;;;4.78;4.00;;;;;20.70;99884.00;;;;2067847;28;20240;-54
2023/12/02 03:33:44;;;;;;;4.60;3.90;;;;;20.60;99848.00;;;;2063330;28;20683;-54
2023/12/02 03:34:44;;;;;;;4.63;4.17;;;;;20.60;99851.00;;;;2060151;28;20280;-54
2023/12/02 03:35:45;;;;;;;4.23;3.83;;;;;20.60;99848.00;;;;2068663;28;20236;-54
2023/12/02 03:36:45;;;;;;;5.17;4.50;;;;;20.60;99846.00;;;;2069773;28;20210;-55
2023/12/02 03:37:45;;;;;;;4.47;3.80;;;;;20.60;99847.00;;;;2069047;28;20213;-55
2023/12/02 03:38:46;;;;;;;4.30;3.90;;;;;20.60;99851.00;;;;2069757;28;20206;-54
2023/12/02 03:39:46;;;;;;;5.30;4.40;;;;;20.60;99855.00;;;;2060014;28;20227;-55
2023/12/02 03:40:46;;;;;;;3.87;3.50;;;;;20.60;99853.00;;;;2069703;28;20206;-54
2023/12/02 03:41:47;;;;;;;4.50;4.10;;;;;20.60;99860.00;;;;2069890;28;20206;-55
2023/12/02 03:42:47;;;;;;;5.37;4.27;;;;;20.60;99857.00;;;;2069634;28;20277;-54
2023/12/02 03:43:47;;;;;;;4.70;4.10;;;;;20.60;99857.00;;;;2069766;28;20792;-55
2023/12/02 03:44:48;;;;;;;4.33;3.93;;;;;20.60;99770.00;;;;2059527;28;20233;-54
2023/12/02 03:45:48;;;;;;;4.20;3.53;;;;;20.60;99864.00;;;;2069998;28;20210;-54
2023/12/02 03:46:48;;;;;;;5.17;4.30;;;;;20.60;99854.00;;;;2069794;28;20221;-54
2023/12/02 03:47:49;;;;;;;4.20;3.80;;;;;20.60;99864.00;;;;2069156;28;20252;-55
2023/12/02 03:48:49;;;;;;;4.70;4.10;;;;;20.60;99856.00;;;;2069863;28;20214;-54
2023/12/02 03:49:49;;;;;;;5.30;4.40;;;;;20.60;99858.00;;;;2060069;28;20207;-54
2023/12/02 03:50:50;;;;;;;4.17;3.77;;;;;20.60;99852.00;;;;2070025;28;20619;-54
2023/12/02 03:51:50;;;;;;;5.00;4.50;;;;;20.60;99851.00;;;;2066356;28;20758;-55
2023/12/02 03:52:50;;;;;;;4.43;3.60;;;;;20.50;99860.00;;;;2069587;28;20556;-54
2023/12/02 03:53:50;;;;;;;4.83;4.33;;;;;20.60;99854.00;;;;2069903;28;20941;-54
2023/12/02 03:54:51;;;;;;;5.40;4.40;;;;;20.60;99854.00;;;;2061403;28;20221;-54
2023/12/02 03:55:53;;;;;;;5.00;4.30;;;;;20.50;99710.00;;;;2071054;28;26083;-55
2023/12/02 03:56:53;;;;;;;5.00;4.20;;;;;20.50;99858.00;;;;2070849;28;20267;-54
2023/12/02 03:57:53;;;;;;;4.50;4.10;;;;;20.50;99858.00;;;;2071121;28;20725;-54
2023/12/02 03:58:55;;;;;;;6.33;4.63;;;;;20.50;99859.00;;;;2070962;28;20214;-54
2023/12/02 03:59:55;;;;;;;5.40;4.50;;;;;20.50;99862.00;;;;2061149;28;20225;-54
2023/12/02 04:00:56;;;;;;;4.60;4.00;;;;;20.50;99864.00;;;;2071401;28;20301;-55
2023/12/02 04:01:56;;;;;;;4.67;4.00;;;;;20.50;99865.00;;;;2067198;28;20329;-54
2023/12/02 04:02:59;;;;;;;4.60;4.10;;;;;20.50;99868.00;;;;2070475;28;20218;-54
2023/12/02 04:03:59;;;;;;;6.00;4.38;;;;;20.60;99868.00;;;;2069970;28;20280;-54
2023/12/02 04:05:00;;;;;;;4.70;4.20;;;;;20.50;99865.00;;;;2074752;28;20708;-54
2023/12/02 04:06:00;;;;;;;4.60;3.90;;;;;20.50;99860.00;;;;2077820;28;20621;-54
2023/12/02 04:07:00;;;;;;;5.10;4.27;;;;;20.50;99870.00;;;;2069727;28;20202;-54
2023/12/02 04:08:01;;;;;;;5.47;4.87;;;;;20.50;99867.00;;;;2071136;28;20225;-54
2023/12/02 04:09:01;;;;;;;4.80;4.30;;;;;20.50;99865.00;;;;2069642;28;20202;-56
2023/12/02 04:10:02;;;;;;;4.70;4.20;;;;;20.50;99865.00;;;;2068700;28;20209;-54
2023/12/02 04:11:03;;;;;;;5.25;4.38;;;;;20.50;99868.00;;;;2078136;28;20674;-54
2023/12/02 04:12:03;;;;;;;5.10;4.30;;;;;20.50;99867.00;;;;2078682;28;20213;-58
2023/12/02 04:13:05;;;;;;;4.90;4.30;;;;;20.50;99873.00;;;;2071224;28;20302;-55
2023/12/02 04:14:06;;;;;;;4.30;3.90;;;;;20.50;99877.00;;;;2061008;28;20226;-55
2023/12/02 04:15:07;;;;;;;5.20;4.70;;;;;20.50;99877.00;;;;2071329;28;20220;-54
2023/12/02 04:16:07;;;;;;;4.40;3.70;;;;;20.50;99880.00;;;;2070481;28;20480;-54
2023/12/02 04:17:08;;;;;;;4.60;4.13;;;;;20.50;99880.00;;;;2070762;28;20214;-55
2023/12/02 04:18:08;;;;;;;5.33;4.83;;;;;20.50;99883.00;;;;2071182;28;20233;-54
2023/12/02 04:19:09;;;;;;;5.20;4.67;;;;;20.50;99880.00;;;;2061605;28;20202;-54
2023/12/02 04:20:11;;;;;;;6.47;3.70;;;;;20.50;99883.00;;;;2069467;28;20217;-54
2023/12/02 04:21:11;;;;;;;4.88;4.03;;;;;20.50;99887.00;;;;2070774;28;20285;-54
2023/12/02 04:22:12;;;;;;;4.30;3.90;;;;;20.50;99895.00;;;;2071367;28;20667;-54
2023/12/02 04:23:14;;;;;;;4.80;3.83;;;;;20.50;99896.00;;;;2071034;28;20583;-54
2023/12/02 04:24:14;;;;;;;4.47;4.05;;;;;20.50;99902.00;;;;2059652;28;20827;-55
2023/12/02 04:25:14;;;;;;;5.07;4.40;;;;;20.40;99898.00;;;;2071039;28;20221;-54
2023/12/02 04:26:15;;;;;;;4.40;3.80;;;;;20.40;99885.00;;;;2070220;28;20226;-54
2023/12/02 04:27:15;;;;;;;5.50;4.90;;;;;20.40;99897.00;;;;2068652;28;20241;-54
2023/12/02 04:28:16;;;;;;;5.63;4.63;;;;;20.50;99902.00;;;;2070119;28;20210;-54
2023/12/02 04:29:17;;;;;;;5.10;3.80;;;;;20.40;99899.00;;;;2062807;28;20672;-54
2023/12/02 04:30:17;;;;;;;5.70;4.60;;;;;20.40;99899.00;;;;2086066;28;20244;-55
2023/12/02 04:31:18;;;;;;;4.80;4.30;;;;;20.40;99908.00;;;;2082533;28;20213;-54
2023/12/02 04:32:18;;;;;;;6.00;4.70;;;;;19.90;99898.00;;;;2070771;28;20218;-55
2023/12/02 04:33:18;;;;;;;4.90;4.40;;;;;20.40;99903.00;;;;2070906;28;20210;-54
2023/12/02 04:34:19;;;;;;;4.90;4.33;;;;;20.40;99661.00;;;;2058353;28;20206;-54
2023/12/02 04:35:19;;;;;;;4.40;4.00;;;;;20.40;99909.00;;;;2067716;28;20826;-55
2023/12/02 04:36:19;;;;;;;4.70;4.20;;;;;20.40;99906.00;;;;2071014;28;20591;-54
2023/12/02 04:37:23;;;;;;;4.83;4.37;;;;;20.40;99947.00;;;;2070478;28;20215;-54
2023/12/02 04:38:23;;;;;;;4.95;4.13;;;;;20.40;99908.00;;;;2071022;28;20225;-55
2023/12/02 04:39:25;;;;;;;6.30;5.00;;;;;20.40;99901.00;;;;2063582;28;20234;-55
2023/12/02 04:40:25;;;;;;;4.88;4.20;;;;;20.40;99908.00;;;;2078025;28;20678;-54
2023/12/02 04:41:25;;;;;;;4.80;4.40;;;;;20.40;99907.00;;;;2075249;28;20222;-55
2023/12/02 04:42:26;;;;;;;5.53;5.03;;;;;20.40;99912.00;;;;2071100;28;20587;-54
2023/12/02 04:43:26;;;;;;;6.30;4.50;;;;;20.40;99935.00;;;;2068863;28;20685;-54
2023/12/02 04:44:26;;;;;;;5.10;4.40;;;;;20.40;99916.00;;;;2059526;28;20969;-54
2023/12/02 04:45:27;;;;;;;5.50;4.80;;;;;20.40;99914.00;;;;2073763;28;20711;-54
2023/12/02 04:46:27;;;;;;;4.23;3.83;;;;;20.40;99909.00;;;;2070728;28;20695;-55
2023/12/02 04:47:27;;;;;;;4.90;4.13;;;;;20.40;99911.00;;;;2068231;28;20757;-55
2023/12/02 04:48:28;;;;;;;6.03;4.60;;;;;20.40;99910.00;;;;2070920;28;20869;-54
2023/12/02 04:49:28;;;;;;;4.93;4.33;;;;;20.40;99913.00;;;;2067171;28;20762;-54
2023/12/02 04:50:28;;;;;;;4.73;4.23;;;;;20.10;99913.00;;;;2086869;28;20217;-54
2023/12/02 04:51:29;;;;;;;4.77;4.17;;;;;20.30;99912.00;;;;2080493;28;20253;-55
2023/12/02 04:52:30;;;;;;;4.70;4.13;;;;;20.30;99911.00;;;;2070915;28;20217;-54
2023/12/02 04:53:30;;;;;;;5.40;4.27;;;;;20.30;99912.00;;;;2071067;28;20287;-55
2023/12/02 04:54:30;;;;;;;5.27;4.77;;;;;20.30;99912.00;;;;2067580;28;20227;-54
2023/12/02 04:55:31;;;;;;;5.47;4.57;;;;;20.30;99912.00;;;;2084510;28;20237;-54
2023/12/02 04:56:31;;;;;;;4.70;4.10;;;;;20.30;99916.00;;;;2079095;28;20240;-54
2023/12/02 04:57:31;;;;;;;4.50;4.10;;;;;20.30;99915.00;;;;2070571;28;20210;-54
2023/12/02 04:58:31;;;;;;;4.40;3.83;;;;;20.30;99923.00;;;;2068246;28;20214;-54
2023/12/02 04:59:32;;;;;;;4.57;4.07;;;;;20.30;99910.00;;;;2063611;28;20217;-55
2023/12/02 05:00:32;;;;;;;5.00;4.00;;;;;20.30;99924.00;;;;2086833;28;20208;-54
2023/12/02 05:01:33;;;;;;;4.30;3.70;;;;;20.30;99924.00;;;;2078893;28;20229;-55